createdAt,value
2023-02-22T00:02:04.808Z,99.99
2023-02-22T00:04:24.592Z,99.99
2023-02-22T00:06:41.041Z,99.99
2023-02-22T00:08:57.692Z,99.99
2023-02-22T00:11:17.371Z,99.99
2023-02-22T00:13:32.782Z,99.99
2023-02-22T00:15:53.090Z,99.99
2023-02-22T00:18:08.599Z,99.99
2023-02-22T00:20:25.179Z,99.99
2023-02-22T00:22:43.312Z,99.99
2023-02-22T00:25:03.845Z,99.99
2023-02-22T00:27:24.495Z,99.99
2023-02-22T00:30:52.969Z,99.99
2023-02-22T00:33:13.542Z,99.99
2023-02-22T00:35:34.122Z,99.99
2023-02-22T00:37:54.737Z,99.99
2023-02-22T00:40:12.768Z,99.99
2023-02-22T00:42:31.001Z,99.99
2023-02-22T00:44:51.552Z,99.99
2023-02-22T00:47:08.665Z,99.99
2023-02-22T00:49:25.241Z,99.99
2023-02-22T00:51:43.868Z,99.99
2023-02-22T00:53:59.837Z,99.99
2023-02-22T00:56:20.489Z,99.99
2023-02-22T00:59:26.069Z,99.99
2023-02-22T01:01:38.067Z,99.99
2023-02-22T01:03:55.020Z,99.99
2023-02-22T01:06:13.183Z,99.99
2023-02-22T01:08:32.255Z,99.99
2023-02-22T01:10:52.314Z,99.99
2023-02-22T01:13:07.981Z,99.99
2023-02-22T01:16:17.435Z,99.99
2023-02-22T01:19:57.260Z,99.99
2023-02-22T01:22:15.007Z,99.99
2023-02-22T01:24:33.038Z,99.99
2023-02-22T01:26:53.678Z,99.99
2023-02-22T01:29:14.225Z,99.99
2023-02-22T01:32:43.826Z,99.99
2023-02-22T01:35:04.333Z,99.99
2023-02-22T01:37:19.923Z,99.99
2023-02-22T01:39:36.534Z,99.99
2023-02-22T01:41:57.419Z,99.99
2023-02-22T01:44:13.701Z,99.99
2023-02-22T01:46:29.490Z,99.99
2023-02-22T01:48:49.833Z,99.99
2023-02-22T01:51:11.193Z,99.99
2023-02-22T01:54:40.504Z,99.99
2023-02-22T01:58:10.010Z,99.99
2023-02-22T02:00:28.117Z,99.99
2023-02-22T02:02:50.747Z,99.99
2023-02-22T02:07:00.752Z,99.99
2023-02-22T02:09:17.249Z,99.99
2023-02-22T02:11:32.906Z,99.99
2023-02-22T02:13:50.983Z,99.99
2023-02-22T02:16:10.105Z,99.99
2023-02-22T02:18:26.657Z,99.99
2023-02-22T02:20:44.713Z,99.99
2023-02-22T02:23:05.379Z,99.99
2023-02-22T02:25:23.438Z,99.99
2023-02-22T02:27:44.009Z,99.99
2023-02-22T02:30:08.119Z,99.99
2023-02-22T02:32:22.744Z,99.99
2023-02-22T02:34:38.254Z,99.99
2023-02-22T02:36:56.484Z,99.99
2023-02-22T02:39:17.133Z,99.99
2023-02-22T02:41:33.868Z,99.99
2023-02-22T02:43:54.316Z,99.99
2023-02-22T02:46:13.594Z,99.99
2023-02-22T02:48:31.746Z,99.99
2023-02-22T02:50:48.390Z,99.99
2023-02-22T02:53:06.385Z,99.99
2023-02-22T02:55:25.460Z,99.99
2023-02-22T02:57:46.132Z,99.99
2023-02-22T03:00:04.291Z,99.99
2023-02-22T03:02:17.389Z,99.99
2023-02-22T03:04:35.474Z,99.99
2023-02-22T03:06:54.544Z,99.99
2023-02-22T03:09:15.106Z,99.99
2023-02-22T03:12:45.756Z,99.99
2023-02-22T03:15:03.901Z,99.99
2023-02-22T03:17:24.489Z,99.99
2023-02-22T03:19:42.710Z,99.99
2023-02-22T03:22:03.189Z,99.99
2023-02-22T03:24:23.927Z,99.99
2023-02-22T03:26:44.710Z,99.99
2023-02-22T03:29:03.648Z,99.99
2023-02-22T03:32:25.689Z,99.99
2023-02-22T03:34:43.742Z,99.99
2023-02-22T03:37:01.859Z,99.99
2023-02-22T03:39:22.467Z,99.99
2023-02-22T03:41:43.080Z,99.99
2023-02-22T03:43:59.623Z,99.99
2023-02-22T03:46:20.336Z,99.99
2023-02-22T03:48:40.870Z,99.99
2023-02-22T03:51:01.425Z,99.99
2023-02-22T03:53:19.556Z,99.99
2023-02-22T03:55:36.144Z,99.99
2023-02-22T03:57:56.861Z,99.99
2023-02-22T04:00:15.903Z,99.99
2023-02-22T04:02:32.473Z,99.99
2023-02-22T04:04:53.133Z,99.99
2023-02-22T04:10:09.710Z,99.99
2023-02-22T04:12:27.764Z,99.99
2023-02-22T04:14:49.798Z,99.99
2023-02-22T04:17:08.969Z,99.99
2023-02-22T04:19:25.776Z,99.99
2023-02-22T04:21:40.548Z,99.99
2023-02-22T04:23:58.069Z,99.99
2023-02-22T04:26:13.766Z,99.99
2023-02-22T04:30:58.553Z,99.99
2023-02-22T04:33:10.779Z,99.99
2023-02-22T04:35:33.023Z,99.99
2023-02-22T04:37:49.594Z,99.99
2023-02-22T04:40:06.045Z,99.99
2023-02-22T04:42:24.290Z,99.99
2023-02-22T04:44:44.796Z,99.99
2023-02-22T04:47:01.821Z,99.99
2023-02-22T04:49:21.062Z,99.99
2023-02-22T04:51:39.153Z,99.99
2023-02-22T04:53:57.604Z,99.99
2023-02-22T04:56:15.158Z,99.99
2023-02-22T04:58:31.713Z,99.99
2023-02-22T05:00:52.758Z,99.99
2023-02-22T05:03:08.093Z,99.99
2023-02-22T05:05:33.110Z,99.99
2023-02-22T05:09:31.300Z,99.99
2023-02-22T05:11:52.224Z,99.99
2023-02-22T05:14:10.601Z,99.99
2023-02-22T05:16:29.673Z,99.99
2023-02-22T05:18:48.089Z,99.99
2023-02-22T05:21:04.028Z,99.99
2023-02-22T05:23:25.569Z,99.99
2023-02-22T05:26:50.576Z,99.99
2023-02-22T05:29:07.774Z,99.99
2023-02-22T05:32:02.116Z,99.99
2023-02-22T05:34:23.166Z,99.99
2023-02-22T05:36:45.880Z,99.99
2023-02-22T05:39:32.167Z,99.99
2023-02-22T05:45:46.178Z,99.99
2023-02-22T05:48:32.028Z,99.99
2023-02-22T05:50:50.268Z,99.99
2023-02-22T05:53:07.266Z,99.99
2023-02-22T05:56:14.368Z,99.99
2023-02-22T05:58:34.898Z,99.99
2023-02-22T06:02:04.525Z,99.99
2023-02-22T06:10:08.398Z,99.99
2023-02-22T06:13:47.932Z,99.99
2023-02-22T06:16:17.640Z,99.99
2023-02-22T06:20:57.180Z,99.99
2023-02-22T06:24:35.647Z,99.99
2023-02-22T06:27:22.451Z,99.99
2023-02-22T06:38:35.239Z,99.99
2023-02-22T06:40:52.237Z,99.99
2023-02-22T06:45:38.086Z,99.99
2023-02-22T06:49:07.480Z,99.99
2023-02-22T09:52:45.580Z,89.83
2023-02-22T12:10:14.710Z,82.64
2023-02-22T19:03:37.649Z,97.29
2023-02-22T20:14:38.025Z,96.88
2023-02-22T20:21:20.186Z,96.47
2023-02-22T20:23:39.220Z,96.26
2023-02-22T20:25:57.265Z,95.64
2023-02-22T20:28:18.302Z,95.74
2023-02-22T20:30:37.657Z,96.15
2023-02-22T20:32:58.476Z,95.95
2023-02-22T20:35:18.901Z,95.64
2023-02-22T20:37:37.012Z,95.95
2023-02-22T20:39:57.581Z,95.95
2023-02-22T20:42:18.283Z,96.20
2023-02-22T20:44:39.356Z,96.51
2023-02-22T20:48:00.485Z,96.61
2023-02-22T21:13:37.598Z,95.99
2023-02-22T21:19:51.705Z,96.66
2023-02-22T21:22:12.872Z,96.30
2023-02-22T21:24:31.822Z,95.57
2023-02-22T21:26:52.422Z,95.57
2023-02-22T21:29:09.050Z,95.17
2023-02-22T21:31:29.748Z,94.92
2023-02-22T21:33:51.228Z,95.06
2023-02-22T21:36:10.386Z,94.75
2023-02-22T21:38:30.896Z,94.71
2023-02-22T21:40:51.545Z,95.06
2023-02-22T21:43:10.114Z,95.06
2023-02-22T21:45:30.731Z,94.71
2023-02-22T21:47:49.775Z,94.19
2023-02-22T21:50:07.909Z,94.54
2023-02-22T21:52:26.089Z,94.34
2023-02-22T21:54:42.552Z,94.85
2023-02-22T21:56:59.134Z,94.65
2023-02-22T21:59:16.610Z,95.00
2023-02-22T22:01:34.911Z,94.59
2023-02-22T22:04:00.283Z,94.38
2023-02-22T22:06:16.680Z,94.79
2023-02-22T22:08:37.332Z,94.48
2023-02-22T22:10:56.383Z,94.28
2023-02-22T22:13:53.585Z,93.97
2023-02-22T22:16:12.230Z,94.07
2023-02-22T22:18:32.980Z,93.87
2023-02-22T22:20:51.965Z,93.76
2023-02-22T22:23:10.098Z,93.76
2023-02-22T22:25:30.678Z,93.35
2023-02-22T22:27:51.317Z,93.45
2023-02-22T22:30:11.871Z,93.55
2023-02-22T22:32:32.591Z,93.76
2023-02-22T22:34:53.202Z,93.87
2023-02-22T22:37:13.398Z,94.12
2023-02-22T22:39:30.329Z,94.12
2023-02-22T22:41:46.931Z,94.22
2023-02-22T22:44:07.564Z,93.91
2023-02-22T22:46:25.501Z,93.60
2023-02-22T22:48:46.192Z,94.22
2023-02-22T22:51:07.788Z,93.49
2023-02-22T22:53:24.909Z,93.08
2023-02-22T22:55:45.520Z,93.18
2023-02-22T22:58:07.075Z,93.60
2023-02-22T23:00:23.672Z,93.08
2023-02-22T23:02:44.275Z,93.60
2023-02-22T23:05:05.267Z,93.43
2023-02-22T23:07:25.908Z,94.57
2023-02-22T23:09:44.048Z,94.26
2023-02-22T23:13:13.493Z,93.64
2023-02-22T23:15:31.608Z,93.29
2023-02-22T23:17:48.099Z,93.49
2023-02-22T23:20:06.632Z,94.06
2023-02-22T23:32:43.766Z,94.26
2023-02-22T23:35:52.476Z,94.16
2023-02-22T23:45:37.172Z,94.98
2023-02-22T23:47:57.198Z,95.50
2023-02-22T23:51:10.213Z,95.40
2023-02-22T23:54:29.587Z,95.29
2023-02-22T23:56:49.045Z,95.61
2023-02-22T23:59:13.609Z,95.29
